createdAt,value
2023-03-21T00:01:51.422Z,100.00
2023-03-21T00:04:18.520Z,100.00
2023-03-21T00:06:45.383Z,100.00
2023-03-21T00:09:12.350Z,100.00
2023-03-21T00:11:39.152Z,100.00
2023-03-21T00:14:08.598Z,100.00
2023-03-21T00:16:36.694Z,100.00
2023-03-21T00:19:06.278Z,100.00
2023-03-21T00:21:55.605Z,100.00
2023-03-21T00:24:25.446Z,100.00
2023-03-21T00:26:52.967Z,100.00
2023-03-21T00:29:19.970Z,100.00
2023-03-21T00:31:46.753Z,100.00
2023-03-21T00:36:45.207Z,100.00
2023-03-21T00:39:12.054Z,100.00
2023-03-21T00:41:42.836Z,100.00
2023-03-21T00:44:13.767Z,100.00
2023-03-21T00:46:47.187Z,100.00
2023-03-21T00:49:20.653Z,100.00
2023-03-21T00:51:51.258Z,100.00
2023-03-21T00:54:18.551Z,100.00
2023-03-21T00:56:45.357Z,100.00
2023-03-21T00:59:12.103Z,100.00
2023-03-21T01:02:02.518Z,100.00
2023-03-21T01:04:29.570Z,100.00
2023-03-21T01:06:56.453Z,100.00
2023-03-21T01:09:25.034Z,100.00
2023-03-21T01:11:52.216Z,100.00
2023-03-21T01:14:23.393Z,100.00
2023-03-21T01:16:53.023Z,100.00
2023-03-21T01:19:27.366Z,100.00
2023-03-21T01:21:56.792Z,100.00
2023-03-21T01:24:23.706Z,100.00
2023-03-21T01:26:50.635Z,100.00
2023-03-21T01:29:17.603Z,100.00
2023-03-21T01:31:44.516Z,100.00
2023-03-21T01:34:11.349Z,100.00
2023-03-21T01:36:38.218Z,100.00
2023-03-21T01:39:06.596Z,100.00
2023-03-21T01:41:42.951Z,100.00
2023-03-21T01:44:16.903Z,100.00
2023-03-21T01:47:07.316Z,100.00
2023-03-21T01:49:40.818Z,100.00
2023-03-21T01:52:26.428Z,100.00
2023-03-21T01:55:04.501Z,100.00
2023-03-21T01:57:45.216Z,100.00
2023-03-21T02:00:16.802Z,100.00
2023-03-21T02:02:58.057Z,100.00
2023-03-21T02:05:55.603Z,100.00
2023-03-21T02:08:30.504Z,100.00
2023-03-21T02:11:05.517Z,100.00
2023-03-21T02:13:32.542Z,100.00
2023-03-21T02:16:23.689Z,100.00
2023-03-21T02:18:50.579Z,100.00
2023-03-21T02:21:36.175Z,100.00
2023-03-21T02:24:21.404Z,100.00
2023-03-21T02:26:52.474Z,100.00
2023-03-21T02:30:01.754Z,100.00
2023-03-21T02:32:57.100Z,100.00
2023-03-21T02:35:54.498Z,100.00
2023-03-21T02:38:26.414Z,100.00
2023-03-21T02:41:03.461Z,100.00
2023-03-21T02:43:43.708Z,100.00
2023-03-21T02:46:19.010Z,100.00
2023-03-21T02:48:53.341Z,100.00
2023-03-21T02:51:26.179Z,100.00
2023-03-21T02:54:26.382Z,100.00
2023-03-21T02:56:51.838Z,100.00
2023-03-21T02:59:21.017Z,100.00
2023-03-21T03:01:47.847Z,100.00
2023-03-21T03:04:27.534Z,100.00
2023-03-21T03:07:17.783Z,100.00
2023-03-21T03:10:08.184Z,100.00
2023-03-21T03:13:07.417Z,100.00
2023-03-21T03:16:19.957Z,100.00
2023-03-21T03:19:00.894Z,100.00
2023-03-21T03:21:42.197Z,100.00
2023-03-21T03:24:20.897Z,100.00
2023-03-21T03:26:57.861Z,100.00
2023-03-21T03:29:27.068Z,100.00
2023-03-21T03:31:59.449Z,100.00
2023-03-21T03:34:34.455Z,100.00
2023-03-21T03:37:05.269Z,100.00
2023-03-21T03:39:49.740Z,100.00
2023-03-21T03:42:28.137Z,100.00
2023-03-21T03:44:56.564Z,100.00
2023-03-21T03:47:33.920Z,100.00
2023-03-21T03:50:28.623Z,100.00
2023-03-21T03:53:25.371Z,100.00
2023-03-21T03:55:56.559Z,100.00
2023-03-21T03:58:36.089Z,100.00
2023-03-21T04:01:07.549Z,100.00
2023-03-21T04:03:48.357Z,100.00
2023-03-21T04:06:18.343Z,100.00
2023-03-21T04:08:45.338Z,100.00
2023-03-21T04:11:15.192Z,100.00
2023-03-21T04:13:42.332Z,100.00
2023-03-21T04:16:11.512Z,100.00
2023-03-21T04:18:39.217Z,100.00
2023-03-21T04:21:13.435Z,100.00
2023-03-21T04:23:41.138Z,100.00
2023-03-21T04:26:08.858Z,100.00
2023-03-21T04:28:36.974Z,100.00
2023-03-21T04:31:19.092Z,100.00
2023-03-21T04:33:51.062Z,100.00
2023-03-21T04:36:47.068Z,100.00
2023-03-21T04:39:14.621Z,100.00
2023-03-21T04:41:46.306Z,100.00
2023-03-21T04:44:15.459Z,100.00
2023-03-21T04:46:42.881Z,100.00
2023-03-21T04:49:10.546Z,100.00
2023-03-21T04:51:38.038Z,100.00
2023-03-21T04:54:05.847Z,100.00
2023-03-21T04:56:33.963Z,100.00
2023-03-21T04:59:11.154Z,100.00
2023-03-21T05:01:38.521Z,100.00
2023-03-21T05:04:05.693Z,100.00
2023-03-21T05:06:33.084Z,100.00
2023-03-21T05:09:01.428Z,100.00
2023-03-21T05:11:30.766Z,100.00
2023-03-21T05:13:58.416Z,100.00
2023-03-21T05:16:26.932Z,100.00
2023-03-21T05:18:55.450Z,100.00
2023-03-21T05:21:23.255Z,100.00
2023-03-21T05:23:58.283Z,100.00
2023-03-21T05:26:25.144Z,100.00
2023-03-21T05:28:51.907Z,100.00
2023-03-21T05:31:20.349Z,100.00
2023-03-21T05:33:48.020Z,100.00
2023-03-21T05:36:15.715Z,100.00
2023-03-21T05:38:48.277Z,100.00
2023-03-21T05:41:17.254Z,100.00
2023-03-21T05:44:26.263Z,100.00
2023-03-21T05:46:52.994Z,100.00
2023-03-21T05:49:22.992Z,100.00
2023-03-21T05:51:49.915Z,100.00
2023-03-21T05:54:16.789Z,100.00
2023-03-21T05:56:43.660Z,100.00
2023-03-21T05:59:10.554Z,100.00
2023-03-21T06:04:18.071Z,100.00
2023-03-21T06:06:44.997Z,100.00
2023-03-21T06:09:11.848Z,100.00
2023-03-21T06:11:46.969Z,100.00
2023-03-21T06:14:13.726Z,100.00
2023-03-21T06:16:40.572Z,100.00
2023-03-21T06:19:07.325Z,100.00
2023-03-21T06:21:34.153Z,100.00
2023-03-21T06:24:00.937Z,100.00
2023-03-21T06:26:27.779Z,100.00
2023-03-21T06:28:54.799Z,100.00
2023-03-21T06:31:22.663Z,100.00
2023-03-21T06:33:49.911Z,100.00
2023-03-21T06:36:16.659Z,100.00
2023-03-21T06:38:43.457Z,100.00
2023-03-21T06:41:10.428Z,100.00
2023-03-21T06:43:37.155Z,100.00
2023-03-21T06:46:05.470Z,100.00
2023-03-21T06:48:32.681Z,100.00
2023-03-21T06:50:59.501Z,100.00
2023-03-21T06:53:29.973Z,100.00
2023-03-21T06:55:56.942Z,100.00
2023-03-21T06:58:25.479Z,100.00
2023-03-21T07:00:52.507Z,100.00
2023-03-21T07:03:19.320Z,100.00
2023-03-21T07:05:46.517Z,100.00
2023-03-21T07:08:14.168Z,100.00
2023-03-21T07:10:45.213Z,100.00
2023-03-21T07:13:12.710Z,100.00
2023-03-21T07:15:41.268Z,100.00
2023-03-21T07:18:09.478Z,100.00
2023-03-21T07:20:38.106Z,100.00
2023-03-21T07:23:05.846Z,100.00
2023-03-21T07:25:33.273Z,100.00
2023-03-21T07:28:00.581Z,100.00
2023-03-21T07:30:27.624Z,100.00
2023-03-21T07:32:54.700Z,100.00
2023-03-21T07:35:21.726Z,100.00
2023-03-21T07:37:48.500Z,100.00
2023-03-21T07:40:15.435Z,100.00
2023-03-21T07:42:42.980Z,100.00
2023-03-21T07:48:53.706Z,100.00
2023-03-21T07:51:20.463Z,100.00
2023-03-21T07:53:48.732Z,100.00
2023-03-21T07:56:16.042Z,100.00
2023-03-21T07:58:42.832Z,100.00
2023-03-21T08:01:09.672Z,100.00
2023-03-21T08:03:36.639Z,100.00
2023-03-21T08:06:03.579Z,100.00
2023-03-21T08:08:30.588Z,100.00
2023-03-21T08:10:57.870Z,100.00
2023-03-21T08:13:26.020Z,100.00
2023-03-21T08:16:28.261Z,100.00
2023-03-21T08:18:55.183Z,100.00
2023-03-21T08:21:22.001Z,100.00
2023-03-21T08:23:49.076Z,100.00
2023-03-21T08:26:18.394Z,100.00
2023-03-21T08:28:46.363Z,100.00
2023-03-21T08:31:14.273Z,100.00
2023-03-21T08:33:41.230Z,100.00
2023-03-21T08:36:08.636Z,100.00
2023-03-21T08:38:35.938Z,100.00
2023-03-21T08:41:02.870Z,100.00
2023-03-21T08:43:30.361Z,100.00
2023-03-21T08:45:57.172Z,100.00
2023-03-21T08:48:24.120Z,100.00
2023-03-21T08:50:51.283Z,100.00
2023-03-21T08:53:18.055Z,100.00
2023-03-21T08:55:45.177Z,100.00
2023-03-21T08:58:12.052Z,100.00
2023-03-21T09:00:38.946Z,100.00
2023-03-21T09:03:05.740Z,99.10
2023-03-21T09:05:32.553Z,99.00
2023-03-21T09:08:01.496Z,98.90
2023-03-21T09:10:28.340Z,98.30
2023-03-21T09:12:56.069Z,97.70
2023-03-21T09:15:25.536Z,97.00
2023-03-21T09:17:54.440Z,97.00
2023-03-21T09:20:26.236Z,97.00
2023-03-21T09:22:53.752Z,96.80
2023-03-21T09:25:21.455Z,97.10
2023-03-21T09:27:48.713Z,96.40
2023-03-21T09:30:17.390Z,96.90
2023-03-21T09:32:48.483Z,96.20
2023-03-21T09:35:40.736Z,96.30
2023-03-21T09:38:08.164Z,95.70
2023-03-21T09:40:46.903Z,95.80
2023-03-21T09:43:52.487Z,95.40
2023-03-21T09:46:31.343Z,95.00
2023-03-21T09:49:07.924Z,95.00
2023-03-21T09:51:46.102Z,95.40
2023-03-21T09:54:27.277Z,95.90
2023-03-21T09:56:58.191Z,94.70
2023-03-21T09:59:40.205Z,94.30
2023-03-21T10:02:36.092Z,94.00
2023-03-21T10:05:27.124Z,95.10
2023-03-21T10:08:09.900Z,93.70
2023-03-21T10:10:43.577Z,93.30
2023-03-21T10:13:40.564Z,91.50
2023-03-21T10:16:17.569Z,93.80
2023-03-21T10:18:46.715Z,92.40
2023-03-21T10:21:47.542Z,92.10
2023-03-21T10:24:14.393Z,92.20
2023-03-21T10:26:42.666Z,92.80
2023-03-21T10:29:14.158Z,92.00
2023-03-21T10:31:42.236Z,91.80
2023-03-21T10:34:36.311Z,90.80
2023-03-21T10:37:05.469Z,91.30
2023-03-21T10:39:41.389Z,90.50
2023-03-21T10:42:24.790Z,87.70
2023-03-21T10:44:54.342Z,88.80
2023-03-21T10:47:24.807Z,87.90
2023-03-21T10:50:08.988Z,87.70
2023-03-21T10:52:41.622Z,89.10
2023-03-21T10:55:17.527Z,89.30
2023-03-21T10:57:46.773Z,89.10
2023-03-21T11:00:27.488Z,89.10
2023-03-21T11:02:54.936Z,89.80
2023-03-21T11:05:38.614Z,90.70
2023-03-21T11:08:17.885Z,90.30
2023-03-21T11:11:12.468Z,90.50
2023-03-21T11:13:42.338Z,90.20
2023-03-21T11:16:25.275Z,90.50
2023-03-21T11:18:57.163Z,90.60
2023-03-21T11:21:29.716Z,90.40
2023-03-21T11:23:57.391Z,91.10
2023-03-21T11:26:32.272Z,91.30
2023-03-21T11:29:30.448Z,91.50
2023-03-21T11:32:12.260Z,90.80
2023-03-21T11:35:27.529Z,90.50
2023-03-21T11:37:56.340Z,91.00
2023-03-21T11:40:31.249Z,90.50
2023-03-21T11:43:03.552Z,91.10
2023-03-21T11:46:05.266Z,90.60
2023-03-21T11:48:50.680Z,90.60
2023-03-21T11:51:34.851Z,91.30
2023-03-21T11:54:28.453Z,92.30
2023-03-21T11:57:22.699Z,91.50
2023-03-21T12:00:18.033Z,92.00
2023-03-21T12:03:02.685Z,91.50
2023-03-21T12:05:43.227Z,91.40
2023-03-21T12:08:22.509Z,91.00
2023-03-21T12:10:58.753Z,91.90
2023-03-21T12:16:27.652Z,92.20
2023-03-21T12:19:12.539Z,92.60
2023-03-21T12:22:18.441Z,91.80
2023-03-21T12:24:54.087Z,92.40
2023-03-21T12:28:03.633Z,92.40
2023-03-21T12:31:01.066Z,93.10
2023-03-21T12:33:59.073Z,93.00
2023-03-21T12:36:31.784Z,92.40
2023-03-21T12:39:26.986Z,92.30
2023-03-21T12:41:59.571Z,91.90
2023-03-21T12:44:29.872Z,92.70
2023-03-21T12:47:08.878Z,92.70
2023-03-21T12:49:41.462Z,92.00
2023-03-21T12:52:32.608Z,92.10
2023-03-21T12:55:06.065Z,91.40
2023-03-21T12:57:36.844Z,90.70
2023-03-21T13:00:14.001Z,90.40
2023-03-21T13:02:55.413Z,91.10
2023-03-21T13:05:31.977Z,91.90
2023-03-21T13:08:07.009Z,92.00
2023-03-21T13:10:34.437Z,91.30
2023-03-21T13:13:22.709Z,91.90
2023-03-21T13:16:17.203Z,92.20
2023-03-21T13:19:02.894Z,92.50
2023-03-21T13:21:35.245Z,92.10
2023-03-21T13:24:23.173Z,92.40
2023-03-21T13:26:57.044Z,93.20
2023-03-21T13:29:32.146Z,92.00
2023-03-21T13:32:09.571Z,92.10
2023-03-21T13:34:39.482Z,90.80
2023-03-21T13:37:10.818Z,91.20
2023-03-21T13:39:44.560Z,91.40
2023-03-21T13:42:31.588Z,91.80
2023-03-21T13:45:01.301Z,91.80
2023-03-21T13:47:42.091Z,91.90
2023-03-21T13:50:17.608Z,92.00
2023-03-21T13:53:04.595Z,92.40
2023-03-21T13:55:41.454Z,93.10
2023-03-21T13:58:35.082Z,93.30
2023-03-21T14:01:28.963Z,93.50
2023-03-21T14:04:23.971Z,93.70
2023-03-21T14:07:07.063Z,92.70
2023-03-21T14:09:36.378Z,92.80
2023-03-21T14:12:07.819Z,92.40
2023-03-21T14:14:49.278Z,92.90
2023-03-21T14:20:29.009Z,93.30
2023-03-21T14:22:56.437Z,93.60
2023-03-21T14:25:29.201Z,93.70
2023-03-21T14:28:03.812Z,93.80
2023-03-21T14:30:34.833Z,94.00
2023-03-21T14:33:21.912Z,94.10
2023-03-21T14:35:49.787Z,93.80
2023-03-21T14:38:24.587Z,93.70
2023-03-21T14:40:55.065Z,93.30
2023-03-21T14:43:23.432Z,93.50
2023-03-21T14:45:55.132Z,93.80
2023-03-21T14:48:35.211Z,93.50
2023-03-21T14:51:05.894Z,93.50
2023-03-21T14:53:37.775Z,93.80
2023-03-21T14:56:30.940Z,93.70
2023-03-21T14:58:58.451Z,94.10
2023-03-21T15:01:32.597Z,94.10
2023-03-21T15:04:01.220Z,94.70
2023-03-21T15:06:28.008Z,95.40
2023-03-21T15:09:00.365Z,95.40
2023-03-21T15:11:39.738Z,95.20
2023-03-21T15:14:09.802Z,95.50
2023-03-21T15:16:37.721Z,95.80
2023-03-21T15:19:35.062Z,96.10
2023-03-21T15:22:24.698Z,96.70
2023-03-21T15:24:56.931Z,97.10
2023-03-21T15:27:25.300Z,96.80
2023-03-21T15:29:56.918Z,96.60
2023-03-21T15:32:27.249Z,96.70
2023-03-21T15:35:07.853Z,97.20
2023-03-21T15:37:37.267Z,97.30
2023-03-21T15:40:11.930Z,97.50
2023-03-21T15:42:41.220Z,97.80
2023-03-21T15:45:24.880Z,98.20
2023-03-21T15:48:17.150Z,98.70
2023-03-21T15:50:58.218Z,99.10
2023-03-21T15:53:25.634Z,99.30
2023-03-21T15:55:56.870Z,99.50
2023-03-21T16:01:21.937Z,99.90
2023-03-21T16:03:56.965Z,99.80
2023-03-21T16:06:33.594Z,100.00
2023-03-21T16:09:09.596Z,100.00
2023-03-21T16:11:47.518Z,100.00
2023-03-21T16:14:14.559Z,100.00
2023-03-21T16:16:41.486Z,100.00
2023-03-21T16:19:08.526Z,100.00
2023-03-21T16:21:57.364Z,100.00
2023-03-21T16:24:24.138Z,100.00
2023-03-21T16:26:52.053Z,100.00
2023-03-21T16:29:19.604Z,100.00
2023-03-21T16:31:48.415Z,100.00
2023-03-21T16:34:15.392Z,100.00
2023-03-21T16:36:44.033Z,100.00
2023-03-21T16:39:22.309Z,100.00
2023-03-21T16:41:50.855Z,100.00
2023-03-21T16:44:17.782Z,100.00
2023-03-21T16:46:45.118Z,100.00
2023-03-21T16:49:38.794Z,100.00
2023-03-21T16:52:06.527Z,100.00
2023-03-21T16:54:33.281Z,100.00
2023-03-21T16:57:00.401Z,100.00
2023-03-21T16:59:27.130Z,100.00
2023-03-21T17:01:53.853Z,100.00
2023-03-21T17:04:20.798Z,100.00
2023-03-21T17:06:51.066Z,100.00
2023-03-21T17:09:21.764Z,100.00
2023-03-21T17:11:49.506Z,100.00
2023-03-21T17:14:21.489Z,100.00
2023-03-21T17:16:48.385Z,100.00
2023-03-21T17:19:21.967Z,100.00
2023-03-21T17:21:48.787Z,100.00
2023-03-21T17:24:15.889Z,100.00
2023-03-21T17:26:42.734Z,100.00
2023-03-21T17:29:13.372Z,100.00
2023-03-21T17:31:40.349Z,100.00
2023-03-21T17:34:07.231Z,100.00
2023-03-21T17:36:36.877Z,100.00
2023-03-21T17:39:06.708Z,100.00
2023-03-21T17:42:31.309Z,100.00
2023-03-21T17:44:58.102Z,100.00
2023-03-21T17:48:00.537Z,100.00
2023-03-21T17:50:31.697Z,100.00
2023-03-21T17:52:58.612Z,100.00
2023-03-21T17:55:26.127Z,100.00
2023-03-21T17:57:52.960Z,100.00
2023-03-21T18:00:23.201Z,100.00
2023-03-21T18:02:50.759Z,100.00
2023-03-21T18:05:18.283Z,100.00
2023-03-21T18:11:25.632Z,100.00
2023-03-21T18:14:03.577Z,100.00
2023-03-21T18:16:34.008Z,100.00
2023-03-21T18:19:24.283Z,100.00
2023-03-21T18:21:51.366Z,100.00
2023-03-21T18:24:57.882Z,100.00
2023-03-21T18:27:24.628Z,100.00
2023-03-21T18:30:25.938Z,100.00
2023-03-21T18:35:25.890Z,100.00
2023-03-21T18:37:53.055Z,100.00
2023-03-21T18:40:22.133Z,100.00
2023-03-21T18:43:41.413Z,100.00
2023-03-21T18:45:36.168Z,100.00
2023-03-21T18:48:02.989Z,100.00
2023-03-21T18:50:30.123Z,100.00
2023-03-21T18:52:58.277Z,100.00
2023-03-21T18:55:44.251Z,100.00
2023-03-21T18:58:13.049Z,100.00
2023-03-21T19:00:40.317Z,100.00
2023-03-21T19:03:19.195Z,100.00
2023-03-21T19:05:48.177Z,100.00
2023-03-21T19:08:14.928Z,100.00
2023-03-21T19:11:17.466Z,100.00
2023-03-21T19:13:44.253Z,100.00
2023-03-21T19:16:11.655Z,100.00
2023-03-21T19:18:54.144Z,100.00
2023-03-21T19:21:21.876Z,100.00
2023-03-21T19:26:35.464Z,100.00
2023-03-21T19:29:02.303Z,100.00
2023-03-21T19:31:29.109Z,100.00
2023-03-21T19:33:56.194Z,100.00
2023-03-21T19:36:23.554Z,100.00
2023-03-21T19:38:50.973Z,100.00
2023-03-21T19:41:18.719Z,100.00
2023-03-21T19:43:54.332Z,100.00
2023-03-21T19:46:24.869Z,100.00
2023-03-21T19:48:56.209Z,100.00
2023-03-21T19:51:28.806Z,100.00
2023-03-21T19:54:01.184Z,100.00
2023-03-21T19:56:28.254Z,100.00
2023-03-21T19:59:10.471Z,100.00
2023-03-21T20:01:37.547Z,100.00
2023-03-21T20:04:04.428Z,100.00
2023-03-21T20:06:31.325Z,100.00
2023-03-21T20:09:37.979Z,100.00
2023-03-21T20:11:44.841Z,100.00
2023-03-21T20:14:11.550Z,100.00
2023-03-21T20:16:38.345Z,100.00
2023-03-21T20:19:08.703Z,100.00
2023-03-21T20:21:46.553Z,100.00
2023-03-21T20:24:16.779Z,100.00
2023-03-21T20:26:45.209Z,100.00
2023-03-21T20:30:03.790Z,100.00
2023-03-21T20:31:58.949Z,100.00
2023-03-21T20:34:25.846Z,100.00
2023-03-21T20:36:53.178Z,100.00
2023-03-21T20:39:20.133Z,100.00
2023-03-21T20:41:46.916Z,100.00
2023-03-21T20:47:45.301Z,100.00
2023-03-21T20:50:22.150Z,100.00
2023-03-21T20:53:30.345Z,100.00
2023-03-21T20:56:02.177Z,100.00
2023-03-21T20:58:55.302Z,100.00
2023-03-21T21:01:17.446Z,100.00
2023-03-21T21:03:44.650Z,100.00
2023-03-21T21:06:17.859Z,100.00
2023-03-21T21:08:46.290Z,100.00
2023-03-21T21:14:02.444Z,100.00
2023-03-21T21:16:30.326Z,100.00
2023-03-21T21:18:57.059Z,100.00
2023-03-21T21:21:23.851Z,100.00
2023-03-21T21:23:51.137Z,100.00
2023-03-21T21:26:17.944Z,100.00
2023-03-21T21:28:47.587Z,100.00
2023-03-21T21:31:16.570Z,100.00
2023-03-21T21:33:46.134Z,100.00
2023-03-21T21:36:13.749Z,100.00
2023-03-21T21:38:43.482Z,100.00
2023-03-21T21:41:17.611Z,100.00
2023-03-21T21:43:44.367Z,100.00
2023-03-21T21:46:12.274Z,100.00
2023-03-21T21:48:43.057Z,100.00
2023-03-21T21:51:09.991Z,100.00
2023-03-21T21:53:36.745Z,100.00
2023-03-21T21:59:02.607Z,100.00
2023-03-21T22:01:30.540Z,100.00
2023-03-21T22:04:06.277Z,100.00
2023-03-21T22:06:34.201Z,100.00
2023-03-21T22:09:02.298Z,100.00
2023-03-21T22:11:29.014Z,100.00
2023-03-21T22:13:55.931Z,100.00
2023-03-21T22:16:22.879Z,100.00
2023-03-21T22:18:49.631Z,100.00
2023-03-21T22:21:16.481Z,100.00
2023-03-21T22:23:43.384Z,100.00
2023-03-21T22:26:10.944Z,100.00
2023-03-21T22:28:40.543Z,100.00
2023-03-21T22:33:58.210Z,100.00
2023-03-21T22:36:25.024Z,100.00
2023-03-21T22:38:51.738Z,100.00
2023-03-21T22:41:18.453Z,100.00
2023-03-21T22:43:45.223Z,100.00
2023-03-21T22:46:12.130Z,100.00
2023-03-21T22:48:38.917Z,100.00
2023-03-21T22:51:06.003Z,100.00
2023-03-21T22:53:32.731Z,100.00
2023-03-21T22:55:59.566Z,100.00
2023-03-21T22:58:26.366Z,100.00
2023-03-21T23:00:53.235Z,100.00
2023-03-21T23:03:20.068Z,100.00
2023-03-21T23:05:46.835Z,100.00
2023-03-21T23:08:13.666Z,100.00
2023-03-21T23:10:43.281Z,100.00
2023-03-21T23:13:10.302Z,100.00
2023-03-21T23:15:38.761Z,100.00
2023-03-21T23:18:06.755Z,100.00
2023-03-21T23:20:33.501Z,100.00
2023-03-21T23:23:00.472Z,100.00
2023-03-21T23:25:28.837Z,100.00
2023-03-21T23:27:55.631Z,100.00
2023-03-21T23:30:22.461Z,100.00
2023-03-21T23:32:49.202Z,100.00
2023-03-21T23:35:16.253Z,100.00
2023-03-21T23:37:52.419Z,100.00
2023-03-21T23:40:20.021Z,100.00
2023-03-21T23:42:46.745Z,100.00
2023-03-21T23:45:13.460Z,100.00
2023-03-21T23:47:40.252Z,100.00
2023-03-21T23:50:09.568Z,100.00
2023-03-21T23:52:38.311Z,100.00
2023-03-21T23:55:06.380Z,100.00
2023-03-21T23:57:33.348Z,100.00
